createdAt,value
2018-04-19T00:03:43.887Z,58.00
2018-04-19T00:07:46.540Z,58.00
2018-04-19T00:11:49.251Z,58.00
2018-04-19T00:15:51.911Z,58.00
2018-04-19T00:19:54.577Z,58.10
2018-04-19T00:23:57.191Z,58.30
2018-04-19T00:27:59.841Z,58.30
2018-04-19T00:32:02.555Z,58.40
2018-04-19T00:36:05.204Z,58.50
2018-04-19T00:40:08.581Z,58.70
2018-04-19T00:44:11.232Z,58.60
2018-04-19T00:48:13.883Z,58.60
2018-04-19T00:52:17.300Z,59.00
2018-04-19T00:56:20.727Z,58.60
2018-04-19T01:00:23.384Z,58.50
2018-04-19T01:04:26.864Z,58.40
2018-04-19T01:08:29.610Z,58.40
2018-04-19T01:12:32.327Z,58.60
2018-04-19T01:16:34.941Z,58.60
2018-04-19T01:20:37.600Z,58.60
2018-04-19T01:24:40.304Z,58.60
2018-04-19T01:28:42.952Z,58.70
2018-04-19T01:32:45.640Z,58.60
2018-04-19T01:36:48.256Z,58.70
2018-04-19T01:40:50.900Z,58.60
2018-04-19T01:44:54.320Z,58.70
2018-04-19T01:48:56.967Z,58.70
2018-04-19T01:52:59.677Z,58.70
2018-04-19T01:57:03.055Z,58.70
2018-04-19T02:01:05.708Z,58.70
2018-04-19T02:05:08.361Z,59.00
2018-04-19T02:09:11.884Z,58.90
2018-04-19T02:13:15.311Z,59.00
2018-04-19T02:17:18.747Z,59.10
2018-04-19T02:21:21.403Z,59.10
2018-04-19T02:25:24.063Z,59.10
2018-04-19T02:29:26.747Z,59.30
2018-04-19T02:33:30.179Z,59.40
2018-04-19T02:37:32.832Z,59.40
2018-04-19T02:41:35.491Z,59.20
2018-04-19T02:45:38.145Z,59.60
2018-04-19T02:49:40.801Z,60.00
2018-04-19T02:53:43.421Z,59.30
2018-04-19T02:57:46.139Z,59.90
2018-04-19T03:01:48.852Z,59.30
2018-04-19T03:05:51.568Z,59.40
2018-04-19T03:09:55.101Z,59.50
2018-04-19T03:13:57.715Z,59.40
2018-04-19T03:18:00.370Z,59.30
2018-04-19T03:22:03.020Z,59.50
2018-04-19T03:26:05.676Z,59.30
2018-04-19T03:30:08.342Z,59.40
2018-04-19T03:34:11.008Z,59.30
2018-04-19T03:38:14.438Z,59.40
2018-04-19T03:42:17.087Z,59.40
2018-04-19T03:46:19.740Z,59.30
2018-04-19T03:50:22.400Z,59.30
2018-04-19T03:54:25.011Z,59.30
2018-04-19T03:58:27.678Z,59.70
2018-04-19T04:02:30.327Z,59.30
2018-04-19T04:06:32.980Z,59.40
2018-04-19T04:10:35.647Z,59.40
2018-04-19T04:14:38.260Z,59.50
2018-04-19T04:18:52.741Z,59.40
2018-04-19T04:23:06.271Z,59.30
2018-04-19T04:27:08.929Z,59.50
2018-04-19T04:31:11.625Z,59.50
2018-04-19T04:35:14.270Z,59.60
2018-04-19T04:39:17.677Z,59.80
2018-04-19T04:43:20.335Z,59.80
2018-04-19T04:47:22.989Z,59.90
2018-04-19T04:51:25.642Z,60.10
2018-04-19T04:55:28.296Z,59.90
2018-04-19T04:59:30.908Z,59.80
2018-04-19T05:03:33.616Z,59.70
2018-04-19T05:07:37.045Z,59.90
2018-04-19T05:11:39.700Z,60.60
2018-04-19T05:15:42.361Z,60.00
2018-04-19T05:19:44.982Z,60.40
2018-04-19T05:23:47.701Z,60.90
2018-04-19T05:27:50.363Z,60.60
2018-04-19T05:31:53.022Z,60.50
2018-04-19T05:35:55.808Z,61.20
2018-04-19T05:39:58.423Z,61.20
2018-04-19T05:44:01.084Z,61.80
2018-04-19T05:48:03.741Z,60.70
2018-04-19T05:52:06.407Z,61.30
2018-04-19T05:56:09.834Z,61.80
2018-04-19T06:00:12.448Z,61.70
2018-04-19T06:04:15.104Z,61.50
2018-04-19T06:08:17.773Z,61.80
2018-04-19T06:12:21.200Z,61.10
2018-04-19T06:16:23.879Z,61.10
2018-04-19T06:20:27.250Z,61.80
2018-04-19T06:24:29.903Z,61.60
2018-04-19T06:28:32.561Z,62.90
2018-04-19T06:32:35.982Z,64.00
2018-04-19T06:36:38.648Z,65.10
2018-04-19T06:40:42.019Z,63.70
2018-04-19T06:44:44.673Z,63.70
2018-04-19T06:48:47.328Z,64.30
2018-04-19T06:52:50.749Z,64.30
2018-04-19T06:56:54.180Z,64.50
2018-04-19T07:00:56.792Z,64.50
2018-04-19T07:04:59.502Z,67.10
2018-04-19T07:09:02.161Z,68.10
2018-04-19T07:13:04.827Z,69.40
2018-04-19T07:17:07.488Z,66.60
2018-04-19T07:21:10.101Z,64.30
2018-04-19T07:25:12.789Z,63.60
2018-04-19T07:29:15.457Z,61.80
2018-04-19T07:33:18.892Z,59.60
2018-04-19T07:37:21.543Z,59.50
2018-04-19T07:41:24.991Z,58.20
2018-04-19T07:45:27.711Z,58.10
2018-04-19T07:49:30.392Z,57.70
2018-04-19T07:53:33.062Z,56.50
2018-04-19T07:57:35.752Z,56.30
2018-04-19T08:01:38.384Z,55.70
2018-04-19T08:05:41.166Z,55.20
2018-04-19T08:09:43.835Z,54.70
2018-04-19T08:13:46.516Z,54.50
2018-04-19T08:17:49.181Z,53.90
2018-04-19T08:21:51.851Z,53.30
2018-04-19T08:25:55.285Z,52.20
2018-04-19T08:29:57.965Z,52.00
2018-04-19T08:34:00.655Z,51.90
2018-04-19T08:38:06.046Z,50.50
2018-04-19T08:42:08.806Z,49.80
2018-04-19T08:46:11.475Z,49.60
2018-04-19T08:50:14.929Z,52.10
2018-04-19T08:54:17.621Z,52.10
2018-04-19T08:58:20.286Z,53.50
2018-04-19T09:02:22.953Z,53.40
2018-04-19T09:06:25.758Z,53.80
2018-04-19T09:10:28.459Z,53.90
2018-04-19T09:14:31.129Z,53.50
2018-04-19T09:18:33.876Z,54.90
2018-04-19T09:22:36.615Z,55.30
2018-04-19T09:26:39.301Z,55.00
2018-04-19T09:30:41.915Z,55.50
2018-04-19T09:34:44.568Z,56.10
2018-04-19T09:38:47.983Z,55.20
2018-04-19T09:42:50.708Z,55.20
2018-04-19T09:46:53.366Z,54.10
2018-04-19T09:50:55.985Z,55.30
2018-04-19T09:54:58.634Z,55.30
2018-04-19T09:59:13.174Z,54.80
2018-04-19T10:03:18.814Z,55.10
2018-04-19T10:07:21.473Z,55.40
2018-04-19T10:11:24.131Z,54.40
2018-04-19T10:15:27.514Z,55.00
2018-04-19T10:19:30.941Z,54.10
2018-04-19T10:23:34.418Z,54.60
2018-04-19T10:27:37.123Z,54.50
2018-04-19T10:31:39.843Z,52.60
2018-04-19T10:35:42.635Z,53.90
2018-04-19T10:39:45.296Z,55.00
2018-04-19T10:43:48.737Z,54.50
2018-04-19T10:47:51.438Z,54.40
2018-04-19T10:51:54.178Z,54.60
2018-04-19T10:55:57.636Z,54.50
2018-04-19T11:00:00.304Z,54.40
2018-04-19T11:04:02.974Z,54.50
2018-04-19T11:08:06.400Z,53.90
2018-04-19T11:12:09.061Z,53.60
2018-04-19T11:16:12.449Z,54.90
2018-04-19T11:20:15.108Z,54.90
2018-04-19T11:24:17.764Z,54.60
2018-04-19T11:28:20.416Z,54.80
2018-04-19T11:32:23.075Z,55.00
2018-04-19T11:36:26.449Z,54.40
2018-04-19T11:40:29.105Z,54.50
2018-04-19T11:44:31.759Z,55.80
2018-04-19T11:48:34.413Z,55.50
2018-04-19T11:52:37.072Z,54.20
2018-04-19T11:56:39.693Z,55.20
2018-04-19T12:00:42.355Z,52.90
2018-04-19T12:04:45.012Z,53.80
2018-04-19T12:08:47.673Z,54.10
2018-04-19T12:12:51.095Z,54.70
2018-04-19T12:16:53.787Z,54.70
2018-04-19T12:20:56.551Z,53.70
2018-04-19T12:24:59.208Z,53.30
2018-04-19T12:29:01.876Z,53.00
2018-04-19T12:33:04.524Z,52.80
2018-04-19T12:37:07.136Z,53.40
2018-04-19T12:41:09.792Z,54.10
2018-04-19T12:45:12.449Z,53.10
2018-04-19T12:49:15.157Z,52.10
2018-04-19T12:53:18.574Z,53.30
2018-04-19T12:57:21.182Z,52.50
2018-04-19T13:01:24.609Z,49.70
2018-04-19T13:05:27.328Z,50.00
2018-04-19T13:09:29.976Z,50.70
2018-04-19T13:13:32.629Z,52.30
2018-04-19T13:17:35.241Z,50.50
2018-04-19T13:21:37.901Z,48.50
2018-04-19T13:25:41.458Z,50.00
2018-04-19T13:29:44.117Z,49.30
2018-04-19T13:33:46.772Z,51.10
2018-04-19T13:37:50.151Z,49.80
2018-04-19T13:41:52.803Z,49.40
2018-04-19T13:45:55.460Z,50.10
2018-04-19T13:49:58.990Z,48.90
2018-04-19T13:54:01.657Z,49.10
2018-04-19T13:58:05.037Z,48.20
2018-04-19T14:02:07.701Z,48.00
2018-04-19T14:06:10.352Z,47.20
2018-04-19T14:10:13.770Z,48.00
2018-04-19T14:14:16.430Z,47.20
2018-04-19T14:18:19.868Z,49.30
2018-04-19T14:22:22.517Z,49.00
2018-04-19T14:26:25.175Z,49.40
2018-04-19T14:30:27.831Z,46.50
2018-04-19T14:34:30.491Z,46.80
2018-04-19T14:38:33.860Z,46.70
2018-04-19T14:42:36.614Z,46.80
2018-04-19T14:46:39.285Z,45.10
2018-04-19T14:50:42.773Z,44.20
2018-04-19T14:54:45.474Z,44.10
2018-04-19T14:58:48.861Z,44.30
2018-04-19T15:02:51.627Z,44.10
2018-04-19T15:06:54.311Z,46.40
2018-04-19T15:10:57.728Z,44.90
2018-04-19T15:15:00.374Z,45.00
2018-04-19T15:19:03.068Z,46.40
2018-04-19T15:23:05.724Z,46.50
2018-04-19T15:27:08.377Z,45.10
2018-04-19T15:31:11.031Z,46.20
2018-04-19T15:35:13.747Z,45.40
2018-04-19T15:39:17.138Z,48.10
2018-04-19T15:43:19.817Z,48.00
2018-04-19T15:47:22.488Z,45.70
2018-04-19T15:51:25.918Z,48.70
2018-04-19T15:55:28.659Z,48.00
2018-04-19T15:59:31.330Z,49.00
2018-04-19T16:03:34.006Z,48.10
2018-04-19T16:07:36.665Z,48.30
2018-04-19T16:11:39.325Z,47.90
2018-04-19T16:15:42.153Z,48.40
2018-04-19T16:19:44.819Z,48.80
2018-04-19T16:23:48.255Z,48.10
2018-04-19T16:27:51.041Z,48.10
2018-04-19T16:31:53.708Z,48.90
2018-04-19T16:35:57.160Z,49.10
2018-04-19T16:39:59.835Z,49.00
2018-04-19T16:44:03.270Z,49.60
2018-04-19T16:48:05.986Z,49.50
2018-04-19T16:52:09.435Z,50.20
2018-04-19T16:56:12.217Z,50.20
2018-04-19T17:00:14.918Z,51.30
2018-04-19T17:04:17.541Z,51.00
2018-04-19T17:08:20.208Z,50.40
2018-04-19T17:12:22.865Z,51.00
2018-04-19T17:16:25.531Z,50.90
2018-04-19T17:20:28.945Z,51.70
2018-04-19T17:24:32.320Z,51.30
2018-04-19T17:28:34.982Z,51.20
2018-04-19T17:32:37.645Z,51.20
2018-04-19T17:36:40.299Z,50.60
2018-04-19T17:40:43.004Z,51.20
2018-04-19T17:44:46.380Z,49.80
2018-04-19T17:48:49.835Z,50.20
2018-04-19T17:52:52.484Z,50.10
2018-04-19T17:56:55.192Z,50.20
2018-04-19T18:00:58.608Z,50.70
2018-04-19T18:05:01.991Z,50.80
2018-04-19T18:09:04.670Z,50.70
2018-04-19T18:13:07.324Z,51.30
2018-04-19T18:17:09.970Z,52.10
2018-04-19T18:21:13.397Z,51.90
2018-04-19T18:25:16.009Z,51.80
2018-04-19T18:29:18.663Z,52.30
2018-04-19T18:33:22.087Z,52.70
2018-04-19T18:37:24.741Z,52.60
2018-04-19T18:41:27.397Z,53.00
2018-04-19T18:45:30.279Z,53.30
2018-04-19T18:49:32.964Z,53.40
2018-04-19T18:53:35.616Z,53.40
2018-04-19T18:57:39.031Z,54.00
2018-04-19T19:01:42.855Z,54.20
2018-04-19T19:05:46.430Z,54.10
2018-04-19T19:09:49.189Z,54.30
2018-04-19T19:13:51.953Z,54.80
2018-04-19T19:18:07.235Z,54.50
2018-04-19T19:22:09.892Z,54.40
2018-04-19T19:26:13.275Z,55.30
2018-04-19T19:30:16.413Z,54.60
2018-04-19T19:34:19.867Z,54.60
2018-04-19T19:38:22.531Z,54.60
2018-04-19T19:42:25.261Z,55.40
2018-04-19T19:46:27.871Z,55.00
2018-04-19T19:50:30.526Z,55.20
2018-04-19T19:54:33.228Z,54.60
2018-04-19T19:58:36.759Z,54.90
2018-04-19T20:02:39.416Z,55.00
2018-04-19T20:06:42.029Z,55.00
2018-04-19T20:10:44.680Z,55.10
2018-04-19T20:14:47.384Z,55.00
2018-04-19T20:18:50.088Z,55.40
2018-04-19T20:22:52.794Z,54.70
2018-04-19T20:26:56.228Z,56.00
2018-04-19T20:30:58.886Z,55.60
2018-04-19T20:35:01.579Z,55.80
2018-04-19T20:39:05.012Z,55.60
2018-04-19T20:43:07.668Z,55.60
2018-04-19T20:47:10.283Z,55.60
2018-04-19T20:51:12.939Z,55.60
2018-04-19T20:55:15.593Z,55.70
2018-04-19T20:59:18.245Z,55.60
2018-04-19T21:03:21.656Z,55.80
2018-04-19T21:07:24.270Z,55.80
2018-04-19T21:11:26.926Z,55.80
2018-04-19T21:15:29.635Z,55.70
2018-04-19T21:19:32.284Z,55.70
2018-04-19T21:23:34.940Z,55.60
2018-04-19T21:27:37.549Z,55.50
2018-04-19T21:31:40.204Z,55.40
2018-04-19T21:35:43.619Z,55.40
2018-04-19T21:39:46.274Z,55.40
2018-04-19T21:43:48.932Z,55.40
2018-04-19T21:47:51.545Z,55.40
2018-04-19T21:51:54.197Z,55.40
2018-04-19T21:55:56.852Z,55.30
2018-04-19T21:59:59.510Z,55.40
2018-04-19T22:04:02.168Z,55.40
2018-04-19T22:08:04.776Z,55.40
2018-04-19T22:12:08.192Z,55.50
2018-04-19T22:16:10.859Z,55.40
2018-04-19T22:20:13.548Z,55.50
2018-04-19T22:24:16.205Z,55.50
2018-04-19T22:28:18.819Z,55.50
2018-04-19T22:32:21.480Z,55.50
2018-04-19T22:36:24.932Z,56.10
2018-04-19T22:40:28.348Z,55.60
2018-04-19T22:44:30.999Z,55.50
2018-04-19T22:48:33.660Z,55.60
2018-04-19T22:52:36.309Z,55.90
2018-04-19T22:56:39.729Z,55.60
2018-04-19T23:00:42.381Z,55.60
2018-04-19T23:04:45.032Z,55.80
2018-04-19T23:08:47.693Z,55.80
2018-04-19T23:12:50.297Z,55.60
2018-04-19T23:16:52.980Z,55.60
2018-04-19T23:20:55.635Z,55.70
2018-04-19T23:24:59.062Z,55.70
2018-04-19T23:29:01.740Z,55.70
2018-04-19T23:33:04.368Z,55.70
2018-04-19T23:37:07.016Z,55.70
2018-04-19T23:41:10.435Z,55.70
2018-04-19T23:45:13.080Z,55.70
2018-04-19T23:49:15.737Z,55.70
2018-04-19T23:53:18.355Z,55.80
2018-04-19T23:57:21.011Z,56.10
